Charlton City, Massachusetts
Current Conditions -  °F | °C
As of 9:54 PM on Friday 28 Nov 2014 (Local Time) from KORH Reporting Station
Clear Clear  
Wind Chill:   Ceiling: Unl
Heat Index: 20°   Visibility: 10mi
Dew Point: 15°   Wind: 10mph
Humidity: 81%   Direction: 290°WNW
Pressure: 30.14"   Gusts: NA
Location:  42.15°N, 71.99°W
Report Text: KORH 290254Z AUTO 29009KT 10SM CLR M07/M09 A3014 RMK AO2 SLP220 T10671094 51007
Loading
Personal Weather Stations






























Interactive Weather Map New forecast layout! Learn more

10-Day Weather Forecast

Advertisements
Track Severe Weather on mobile